createdAt,value
2023-01-03T00:02:19.816Z,50.84
2023-01-03T00:05:05.793Z,50.76
2023-01-03T00:07:51.321Z,50.98
2023-01-03T00:10:37.009Z,50.85
2023-01-03T00:13:22.617Z,50.74
2023-01-03T00:16:18.622Z,50.94
2023-01-03T00:19:09.640Z,51.05
2023-01-03T00:21:54.909Z,51.02
2023-01-03T00:24:40.556Z,50.84
2023-01-03T00:27:26.919Z,51.00
2023-01-03T00:30:12.606Z,51.02
2023-01-03T00:32:58.015Z,51.08
2023-01-03T00:35:43.457Z,51.18
2023-01-03T00:38:29.320Z,51.08
2023-01-03T00:41:17.277Z,51.28
2023-01-03T00:44:03.631Z,51.22
2023-01-03T00:46:49.545Z,51.17
2023-01-03T00:49:35.239Z,50.98
2023-01-03T00:52:20.570Z,51.60
2023-01-03T00:55:06.381Z,51.07
2023-01-03T00:57:52.020Z,51.25
2023-01-03T01:00:37.234Z,51.33
2023-01-03T01:03:22.822Z,51.37
2023-01-03T01:06:30.826Z,51.42
2023-01-03T01:09:20.499Z,51.23
2023-01-03T01:12:07.368Z,51.52
2023-01-03T01:14:52.843Z,51.40
2023-01-03T01:17:38.973Z,51.40
2023-01-03T01:20:24.528Z,51.45
2023-01-03T01:23:09.951Z,51.40
2023-01-03T01:25:55.373Z,51.35
2023-01-03T01:28:42.416Z,51.66
2023-01-03T01:31:28.125Z,51.41
2023-01-03T01:34:14.581Z,51.49
2023-01-03T01:36:59.804Z,51.45
2023-01-03T01:39:45.204Z,51.75
2023-01-03T01:42:49.011Z,51.50
2023-01-03T01:45:35.370Z,51.50
2023-01-03T01:48:20.794Z,51.54
2023-01-03T01:51:09.408Z,51.50
2023-01-03T01:53:56.756Z,51.61
2023-01-03T01:56:51.656Z,51.62
2023-01-03T01:59:37.164Z,51.57
2023-01-03T02:02:24.182Z,51.65
2023-01-03T02:05:10.996Z,51.72
2023-01-03T02:07:57.313Z,51.74
2023-01-03T02:11:10.196Z,51.76
2023-01-03T02:14:18.819Z,51.64
2023-01-03T02:17:20.287Z,51.71
2023-01-03T02:20:18.420Z,51.65
2023-01-03T02:23:42.179Z,51.63
2023-01-03T02:26:40.313Z,51.69
2023-01-03T02:29:31.994Z,51.76
2023-01-03T02:32:35.191Z,51.70
2023-01-03T02:35:46.029Z,51.62
2023-01-03T02:39:02.302Z,51.61
2023-01-03T02:42:23.110Z,51.80
2023-01-03T02:45:17.505Z,51.64
2023-01-03T02:48:17.525Z,51.62
2023-01-03T02:51:09.024Z,51.49
2023-01-03T02:53:55.828Z,51.75
2023-01-03T02:56:47.449Z,51.68
2023-01-03T02:59:43.077Z,51.63
2023-01-03T03:02:34.773Z,51.76
2023-01-03T03:05:25.825Z,51.64
2023-01-03T03:08:11.435Z,51.74
2023-01-03T03:11:15.687Z,51.70
2023-01-03T03:14:17.915Z,51.62
2023-01-03T03:17:08.780Z,51.74
2023-01-03T03:20:15.200Z,51.60
2023-01-03T03:23:27.955Z,51.70
2023-01-03T03:26:18.411Z,51.72
2023-01-03T03:29:14.115Z,51.67
2023-01-03T03:31:59.418Z,51.68
2023-01-03T03:34:46.810Z,51.70
2023-01-03T03:37:36.353Z,51.67
2023-01-03T03:40:44.441Z,51.57
2023-01-03T03:43:55.793Z,51.59
2023-01-03T03:46:54.231Z,51.38
2023-01-03T03:49:44.662Z,51.43
2023-01-03T03:52:33.741Z,51.42
2023-01-03T03:55:25.719Z,51.53
2023-01-03T03:58:18.890Z,51.50
2023-01-03T04:01:05.846Z,51.49
2023-01-03T04:03:55.872Z,51.49
2023-01-03T04:06:49.253Z,51.57
2023-01-03T04:09:34.572Z,51.46
2023-01-03T04:12:19.865Z,51.61
2023-01-03T04:15:07.074Z,51.63
2023-01-03T04:17:53.588Z,51.66
2023-01-03T04:20:38.865Z,52.50
2023-01-03T04:23:24.639Z,52.14
2023-01-03T04:26:09.980Z,52.60
2023-01-03T04:28:55.228Z,52.99
2023-01-03T04:31:40.514Z,52.30
2023-01-03T04:34:25.887Z,52.42
2023-01-03T04:37:11.215Z,52.13
2023-01-03T04:39:56.527Z,52.01
2023-01-03T04:43:00.348Z,51.82
2023-01-03T04:45:47.727Z,52.46
2023-01-03T04:48:32.971Z,52.25
2023-01-03T04:51:18.300Z,52.03
2023-01-03T04:54:05.265Z,51.92
2023-01-03T04:56:50.888Z,51.69
2023-01-03T04:59:36.810Z,51.76
2023-01-03T05:02:22.240Z,51.65
2023-01-03T05:05:08.370Z,51.63
2023-01-03T05:07:53.692Z,51.46
2023-01-03T05:10:40.292Z,51.63
2023-01-03T05:13:25.884Z,51.18
2023-01-03T05:16:14.307Z,51.61
2023-01-03T05:19:00.065Z,51.80
2023-01-03T05:22:03.973Z,51.79
2023-01-03T05:25:07.870Z,51.75
2023-01-03T05:27:53.592Z,51.92
2023-01-03T05:30:39.240Z,52.14
2023-01-03T05:33:25.006Z,52.06
2023-01-03T05:36:11.293Z,52.18
2023-01-03T05:38:56.967Z,52.16
2023-01-03T05:42:00.731Z,51.86
2023-01-03T05:44:46.375Z,51.88
2023-01-03T05:47:31.683Z,51.97
2023-01-03T05:50:17.135Z,52.00
2023-01-03T05:53:03.863Z,51.99
2023-01-03T05:55:49.282Z,51.78
2023-01-03T05:58:34.598Z,51.50
2023-01-03T06:01:20.294Z,51.58
2023-01-03T06:04:05.645Z,51.69
2023-01-03T06:06:50.931Z,51.71
2023-01-03T06:09:36.244Z,51.85
2023-01-03T06:12:21.548Z,51.68
2023-01-03T06:15:07.272Z,51.59
2023-01-03T06:17:57.542Z,51.51
2023-01-03T06:20:43.208Z,51.27
2023-01-03T06:23:28.527Z,51.54
2023-01-03T06:26:18.920Z,51.66
2023-01-03T06:29:05.891Z,51.74
2023-01-03T06:31:51.224Z,51.60
2023-01-03T06:34:36.535Z,51.33
2023-01-03T06:37:21.971Z,51.42
2023-01-03T06:40:08.142Z,51.06
2023-01-03T06:42:53.663Z,51.21
2023-01-03T06:45:57.536Z,51.01
2023-01-03T06:49:02.016Z,51.20
2023-01-03T06:52:08.085Z,51.00
2023-01-03T06:54:53.710Z,51.17
2023-01-03T06:57:42.093Z,51.06
2023-01-03T07:00:28.086Z,51.14
2023-01-03T07:03:13.404Z,51.40
2023-01-03T07:05:58.945Z,52.00
2023-01-03T07:08:48.493Z,52.44
2023-01-03T07:11:34.019Z,52.66
2023-01-03T07:14:20.114Z,52.50
2023-01-03T07:17:05.438Z,52.24
2023-01-03T07:19:50.802Z,52.83
2023-01-03T07:22:35.913Z,52.35
2023-01-03T07:25:21.442Z,52.42
2023-01-03T07:28:11.964Z,52.44
2023-01-03T07:31:15.802Z,52.20
2023-01-03T07:34:00.961Z,52.35
2023-01-03T07:36:46.460Z,52.19
2023-01-03T07:39:31.664Z,52.46
2023-01-03T07:42:35.977Z,52.27
2023-01-03T07:45:21.575Z,52.04
2023-01-03T07:48:07.435Z,52.23
2023-01-03T07:50:56.867Z,52.17
2023-01-03T07:53:42.435Z,51.98
2023-01-03T07:56:27.728Z,51.80
2023-01-03T07:59:13.168Z,51.40
2023-01-03T08:01:58.795Z,51.16
2023-01-03T08:04:44.313Z,51.24
2023-01-03T08:07:29.570Z,51.40
2023-01-03T08:10:36.283Z,51.25
2023-01-03T08:13:21.889Z,51.16
2023-01-03T08:16:11.245Z,51.21
2023-01-03T08:18:56.534Z,51.41
2023-01-03T08:21:41.618Z,51.93
2023-01-03T08:24:26.888Z,51.88
2023-01-03T08:27:12.170Z,52.06
2023-01-03T08:29:57.338Z,52.81
2023-01-03T08:32:42.887Z,52.94
2023-01-03T08:35:32.713Z,52.71
2023-01-03T08:38:23.007Z,52.89
2023-01-03T08:41:11.582Z,52.47
2023-01-03T08:44:00.633Z,52.19
2023-01-03T08:46:49.940Z,52.49
2023-01-03T08:49:36.300Z,52.77
2023-01-03T08:52:21.488Z,52.31
2023-01-03T08:55:08.279Z,52.00
2023-01-03T08:57:53.781Z,52.36
2023-01-03T09:00:39.756Z,52.03
2023-01-03T09:03:25.279Z,51.68
2023-01-03T09:06:10.571Z,51.59
2023-01-03T09:08:55.929Z,48.80
2023-01-03T09:11:41.176Z,50.22
2023-01-03T09:14:26.670Z,49.06
2023-01-03T09:17:12.074Z,49.42
2023-01-03T09:19:57.521Z,49.70
2023-01-03T09:22:43.239Z,49.98
2023-01-03T09:25:34.878Z,50.23
2023-01-03T09:28:22.275Z,50.33
2023-01-03T09:31:07.721Z,50.43
2023-01-03T09:33:56.607Z,50.30
2023-01-03T09:36:42.275Z,50.61
2023-01-03T09:39:27.761Z,51.60
2023-01-03T09:42:42.362Z,51.83
2023-01-03T09:45:34.242Z,52.06
2023-01-03T09:48:28.910Z,51.80
2023-01-03T09:51:48.777Z,52.01
2023-01-03T09:54:57.353Z,52.01
2023-01-03T09:58:01.235Z,51.83
2023-01-03T10:01:12.106Z,51.82
2023-01-03T10:04:22.738Z,51.62
2023-01-03T10:07:31.972Z,51.92
2023-01-03T10:10:20.726Z,51.74
2023-01-03T10:13:24.963Z,51.24
2023-01-03T10:16:42.319Z,50.73
2023-01-03T10:19:59.988Z,43.91
2023-01-03T10:22:48.501Z,43.63
2023-01-03T10:25:41.691Z,45.55
2023-01-03T10:28:41.397Z,46.32
2023-01-03T10:31:33.168Z,47.27
2023-01-03T10:34:18.998Z,48.42
2023-01-03T10:37:17.941Z,49.00
2023-01-03T10:40:04.901Z,48.99
2023-01-03T10:42:50.541Z,49.44
2023-01-03T10:45:50.652Z,49.42
2023-01-03T10:51:49.718Z,49.53
2023-01-03T10:54:41.803Z,49.63
2023-01-03T10:57:42.751Z,49.73
2023-01-03T11:00:31.293Z,49.23
2023-01-03T11:03:26.664Z,49.55
2023-01-03T11:06:16.012Z,49.47
2023-01-03T11:09:06.215Z,49.67
2023-01-03T11:12:02.788Z,49.61
2023-01-03T11:14:55.991Z,49.50
2023-01-03T11:17:59.488Z,49.96
2023-01-03T11:21:11.860Z,49.62
2023-01-03T11:24:06.134Z,48.97
2023-01-03T11:27:11.548Z,45.75
2023-01-03T11:30:18.797Z,46.91
2023-01-03T11:33:29.112Z,47.77
2023-01-03T11:36:26.634Z,47.88
2023-01-03T11:42:48.460Z,48.36
2023-01-03T11:45:36.138Z,48.46
2023-01-03T11:51:08.905Z,49.07
2023-01-03T11:54:09.139Z,49.37
2023-01-03T11:56:55.096Z,49.64
2023-01-03T11:59:53.169Z,49.07
2023-01-03T12:02:44.872Z,49.27
2023-01-03T12:05:48.918Z,48.53
2023-01-03T12:08:44.227Z,48.25
2023-01-03T12:11:34.208Z,48.20
2023-01-03T12:14:29.724Z,48.23
2023-01-03T12:17:25.350Z,48.01
2023-01-03T12:20:25.155Z,47.74
2023-01-03T12:23:44.299Z,48.05
2023-01-03T12:26:30.501Z,47.80
2023-01-03T12:29:15.941Z,48.16
2023-01-03T12:32:11.898Z,47.62
2023-01-03T12:35:33.577Z,46.55
2023-01-03T12:38:27.369Z,46.41
2023-01-03T12:41:34.432Z,46.48
2023-01-03T12:44:27.871Z,46.03
2023-01-03T12:47:33.270Z,46.21
2023-01-03T12:50:28.224Z,45.86
2023-01-03T12:53:38.716Z,45.93
2023-01-03T12:56:33.030Z,45.85
2023-01-03T12:59:39.109Z,46.11
2023-01-03T13:02:45.777Z,45.70
2023-01-03T13:05:39.889Z,45.86
2023-01-03T13:17:26.788Z,45.33
2023-01-03T13:20:25.171Z,45.11
2023-01-03T13:23:28.228Z,45.42
2023-01-03T13:26:24.844Z,44.67
2023-01-03T13:29:34.635Z,45.13
2023-01-03T13:32:19.200Z,46.18
2023-01-03T13:35:04.026Z,46.11
2023-01-03T13:43:19.993Z,46.66
2023-01-03T13:46:28.421Z,46.77
2023-01-03T13:49:25.808Z,45.79
2023-01-03T13:52:56.379Z,45.81
2023-01-03T13:55:54.813Z,46.61
2023-01-03T13:58:46.744Z,46.50
2023-01-03T14:01:55.714Z,46.57
2023-01-03T14:05:02.933Z,46.96
2023-01-03T14:08:10.004Z,46.85
2023-01-03T14:11:23.068Z,46.86
2023-01-03T14:14:16.795Z,46.64
2023-01-03T14:17:03.356Z,46.56
2023-01-03T14:19:53.330Z,46.57
2023-01-03T14:22:44.176Z,45.96
2023-01-03T14:25:45.259Z,45.00
2023-01-03T14:28:33.340Z,44.54
2023-01-03T14:31:22.126Z,44.13
2023-01-03T14:34:22.177Z,43.98
2023-01-03T14:37:14.280Z,43.93
2023-01-03T14:40:06.281Z,43.77
2023-01-03T14:42:51.731Z,43.96
2023-01-03T14:45:37.124Z,43.45
2023-01-03T14:48:24.529Z,43.60
2023-01-03T14:51:10.249Z,43.33
2023-01-03T14:53:56.530Z,43.49
2023-01-03T14:56:45.645Z,42.36
2023-01-03T14:59:33.328Z,43.39
2023-01-03T15:02:20.584Z,43.91
2023-01-03T15:05:24.936Z,43.83
2023-01-03T15:08:32.296Z,44.29
2023-01-03T15:11:32.417Z,43.57
2023-01-03T15:14:18.364Z,44.25
2023-01-03T15:17:06.089Z,45.44
2023-01-03T15:19:56.850Z,46.07
2023-01-03T15:22:44.354Z,46.22
2023-01-03T15:25:43.288Z,46.50
2023-01-03T15:28:50.011Z,46.95
2023-01-03T15:31:51.966Z,46.91
2023-01-03T15:34:41.200Z,46.95
2023-01-03T15:37:26.905Z,46.91
2023-01-03T15:40:13.888Z,47.14
2023-01-03T15:43:31.184Z,47.04
2023-01-03T15:46:20.297Z,47.65
2023-01-03T15:49:06.983Z,47.90
2023-01-03T15:51:52.956Z,48.34
2023-01-03T15:54:38.383Z,48.37
2023-01-03T15:57:29.486Z,49.05
2023-01-03T16:00:19.303Z,48.52
2023-01-03T16:03:05.152Z,48.44
2023-01-03T16:05:50.820Z,48.64
2023-01-03T16:08:40.225Z,48.28
2023-01-03T16:11:33.649Z,48.31
2023-01-03T16:14:23.443Z,48.18
2023-01-03T16:17:17.070Z,48.60
2023-01-03T16:20:06.768Z,47.56
2023-01-03T16:23:00.503Z,47.15
2023-01-03T16:25:46.527Z,46.73
2023-01-03T16:28:31.832Z,46.74
2023-01-03T16:31:20.173Z,46.49
2023-01-03T16:34:10.374Z,46.41
2023-01-03T16:36:55.686Z,46.05
2023-01-03T16:39:47.483Z,45.66
2023-01-03T16:42:34.080Z,45.68
2023-01-03T16:45:19.567Z,45.75
2023-01-03T16:48:05.759Z,45.36
2023-01-03T16:50:55.170Z,45.07
2023-01-03T16:53:40.948Z,44.79
2023-01-03T16:56:27.217Z,44.68
2023-01-03T16:59:20.772Z,44.61
2023-01-03T17:02:06.668Z,44.37
2023-01-03T17:04:52.211Z,44.22
2023-01-03T17:07:38.151Z,44.54
2023-01-03T17:10:29.297Z,44.59
2023-01-03T17:13:27.358Z,43.68
2023-01-03T17:16:22.802Z,43.10
2023-01-03T17:19:51.243Z,43.25
2023-01-03T17:22:24.042Z,43.82
2023-01-03T17:25:11.513Z,43.99
2023-01-03T17:27:59.841Z,44.05
2023-01-03T17:30:45.320Z,43.93
2023-01-03T17:33:33.964Z,44.33
2023-01-03T17:36:40.573Z,45.47
2023-01-03T17:39:27.282Z,45.66
2023-01-03T17:42:17.054Z,46.16
2023-01-03T17:45:20.832Z,46.17
2023-01-03T17:48:27.944Z,46.17
2023-01-03T17:51:13.196Z,46.44
2023-01-03T17:53:58.357Z,46.41
2023-01-03T17:56:44.175Z,46.31
2023-01-03T17:59:29.739Z,46.58
2023-01-03T18:02:21.548Z,46.28
2023-01-03T18:05:18.890Z,45.70
2023-01-03T18:08:18.053Z,46.07
2023-01-03T18:11:03.905Z,46.31
2023-01-03T18:13:49.912Z,46.62
2023-01-03T18:16:35.699Z,46.62
2023-01-03T18:19:20.892Z,46.71
2023-01-03T18:22:06.223Z,47.03
2023-01-03T18:24:52.807Z,44.55
2023-01-03T18:27:38.348Z,45.99
2023-01-03T18:30:23.895Z,46.44
2023-01-03T18:33:10.170Z,46.26
2023-01-03T18:35:55.871Z,46.48
2023-01-03T18:38:41.557Z,46.65
2023-01-03T18:41:29.716Z,46.67
2023-01-03T18:44:23.760Z,46.89
2023-01-03T18:47:13.641Z,46.32
2023-01-03T18:49:59.136Z,46.31
2023-01-03T18:52:44.950Z,46.32
2023-01-03T18:55:33.516Z,46.34
2023-01-03T18:58:35.938Z,45.98
2023-01-03T19:01:21.721Z,46.13
2023-01-03T19:04:06.941Z,46.19
2023-01-03T19:06:52.493Z,46.14
2023-01-03T19:09:38.229Z,46.20
2023-01-03T19:12:24.003Z,45.80
2023-01-03T19:15:16.820Z,45.95
2023-01-03T19:18:03.720Z,46.03
2023-01-03T19:20:51.367Z,45.94
2023-01-03T19:23:37.240Z,45.96
2023-01-03T19:26:30.853Z,45.94
2023-01-03T19:29:23.773Z,45.76
2023-01-03T19:32:23.071Z,45.81
2023-01-03T19:35:18.122Z,46.05
2023-01-03T19:38:04.422Z,46.27
2023-01-03T19:40:50.610Z,46.12
2023-01-03T19:43:36.853Z,46.38
2023-01-03T19:46:48.356Z,46.55
2023-01-03T19:49:34.141Z,46.52
2023-01-03T19:52:19.470Z,46.62
2023-01-03T19:55:05.254Z,46.74
2023-01-03T19:57:51.127Z,46.71
2023-01-03T20:00:37.231Z,46.93
2023-01-03T20:03:39.219Z,47.02
2023-01-03T20:06:25.582Z,47.06
2023-01-03T20:09:11.023Z,47.16
2023-01-03T20:11:56.889Z,47.29
2023-01-03T20:14:51.388Z,47.17
2023-01-03T20:17:37.237Z,47.58
2023-01-03T20:20:24.003Z,47.40
2023-01-03T20:23:15.319Z,47.49
2023-01-03T20:26:01.229Z,47.37
2023-01-03T20:28:46.747Z,47.52
2023-01-03T20:31:41.698Z,47.52
2023-01-03T20:34:26.802Z,47.71
2023-01-03T20:37:18.682Z,47.56
2023-01-03T20:40:04.293Z,47.62
2023-01-03T20:42:50.345Z,47.70
2023-01-03T20:45:37.125Z,47.75
2023-01-03T20:48:26.140Z,47.66
2023-01-03T20:51:13.986Z,47.81
2023-01-03T20:53:59.112Z,47.77
2023-01-03T20:56:44.771Z,47.73
2023-01-03T20:59:31.545Z,47.88
2023-01-03T21:02:17.164Z,47.87
2023-01-03T21:05:02.825Z,47.85
2023-01-03T21:08:07.043Z,47.94
2023-01-03T21:10:55.149Z,47.95
2023-01-03T21:13:42.198Z,47.94
2023-01-03T21:16:44.304Z,47.98
2023-01-03T21:19:29.582Z,47.99
2023-01-03T21:22:20.385Z,48.16
2023-01-03T21:25:07.239Z,48.17
2023-01-03T21:27:52.633Z,48.48
2023-01-03T21:30:38.766Z,48.15
2023-01-03T21:33:25.149Z,48.19
2023-01-03T21:36:23.192Z,48.18
2023-01-03T21:39:10.211Z,48.15
2023-01-03T21:42:14.238Z,48.31
2023-01-03T21:44:59.553Z,48.41
2023-01-03T21:47:44.929Z,48.31
2023-01-03T21:50:31.158Z,48.41
2023-01-03T21:53:19.590Z,48.40
2023-01-03T21:56:10.148Z,48.49
2023-01-03T21:58:55.907Z,48.42
2023-01-03T22:02:02.716Z,48.55
2023-01-03T22:04:48.130Z,48.49
2023-01-03T22:07:33.333Z,48.46
2023-01-03T22:10:19.264Z,48.43
2023-01-03T22:13:07.880Z,48.51
2023-01-03T22:15:53.215Z,48.29
2023-01-03T22:18:38.387Z,48.41
2023-01-03T22:21:23.666Z,48.33
2023-01-03T22:24:08.897Z,48.51
2023-01-03T22:26:54.135Z,48.40
2023-01-03T22:29:39.431Z,48.36
2023-01-03T22:32:26.024Z,48.35
2023-01-03T22:35:13.848Z,48.45
2023-01-03T22:37:59.288Z,48.53
2023-01-03T22:40:44.825Z,48.53
2023-01-03T22:43:30.339Z,48.50
2023-01-03T22:46:16.960Z,48.70
2023-01-03T22:49:02.337Z,48.60
2023-01-03T22:51:47.644Z,48.79
2023-01-03T22:54:35.224Z,48.88
2023-01-03T22:57:20.683Z,48.71
2023-01-03T23:00:06.971Z,48.83
2023-01-03T23:02:52.496Z,48.95
2023-01-03T23:05:38.072Z,48.90
2023-01-03T23:08:23.304Z,48.85
2023-01-03T23:11:34.135Z,48.80
2023-01-03T23:14:22.292Z,48.92
2023-01-03T23:17:26.444Z,48.95
2023-01-03T23:20:11.802Z,49.08
2023-01-03T23:23:02.827Z,48.84
2023-01-03T23:25:48.437Z,48.83
2023-01-03T23:28:33.890Z,48.93
2023-01-03T23:31:19.246Z,48.91
2023-01-03T23:34:04.467Z,48.79
2023-01-03T23:36:49.783Z,48.78
2023-01-03T23:39:35.337Z,48.66
2023-01-03T23:42:20.836Z,48.69
2023-01-03T23:45:07.248Z,48.75
2023-01-03T23:47:53.391Z,48.66
2023-01-03T23:50:38.619Z,48.61
2023-01-03T23:53:23.763Z,48.92
2023-01-03T23:56:12.805Z,48.57
2023-01-03T23:58:58.406Z,48.57
